Time;durP1;ratioP1;P1;durP2;ratioP2;P2;SDS_P1;SDS_P2;PMS_P1;PMS_P2;Temp;Humidity;BMP_temperature;BMP_pressure;BME280_temperature;BME280_humidity;BME280_pressure;Samples;Min_cycle;Max_cycle;Signal;HPM_P1;HPM_P2
2022/01/01 00:00:28;;;;;;;68.20;44.60;;;8.60;99.90;;;;;;5074403;28;20449;-82
2022/01/01 00:02:57;;;;;;;45.40;30.57;;;8.50;99.90;;;;;;5074867;28;20449;-81
2022/01/01 00:05:24;;;;;;;38.37;25.93;;;8.60;99.90;;;;;;5074065;28;20449;-82
2022/01/01 00:07:51;;;;;;;33.33;24.50;;;8.70;99.90;;;;;;5074114;28;20489;-81
2022/01/01 00:10:19;;;;;;;38.83;25.60;;;8.70;99.90;;;;;;5073084;28;20453;-82
2022/01/01 00:12:47;;;;;;;35.23;26.23;;;8.60;99.90;;;;;;5073705;28;20453;-80
2022/01/01 00:15:14;;;;;;;41.73;28.83;;;8.50;99.90;;;;;;5073527;28;20449;-81
2022/01/01 00:17:42;;;;;;;39.00;26.07;;;8.50;99.90;;;;;;5074384;28;20793;-79
2022/01/01 00:20:11;;;;;;;38.10;26.67;;;8.60;99.90;;;;;;5072926;28;21001;-83
2022/01/01 00:22:38;;;;;;;47.80;34.10;;;8.60;99.90;;;;;;5074356;28;20457;-81
2022/01/01 00:25:06;;;;;;;37.30;27.27;;;8.60;99.90;;;;;;5073510;28;20484;-81
2022/01/01 00:27:33;;;;;;;36.00;25.37;;;8.60;99.90;;;;;;5073904;28;21003;-81
2022/01/01 00:30:00;;;;;;;36.93;26.23;;;8.70;99.90;;;;;;5073552;28;20445;-71
2022/01/01 00:32:27;;;;;;;36.10;26.87;;;8.50;99.90;;;;;;5074444;28;20450;-81
2022/01/01 00:34:54;;;;;;;34.90;26.30;;;8.50;99.90;;;;;;5074224;28;20503;-81
2022/01/01 00:37:23;;;;;;;40.50;26.23;;;8.40;99.90;;;;;;5073568;28;20887;-82
2022/01/01 00:39:49;;;;;;;38.40;28.03;;;8.40;99.90;;;;;;5073653;28;20524;-81
2022/01/01 00:42:16;;;;;;;43.37;30.93;;;8.40;99.90;;;;;;5073334;28;20451;-81
2022/01/01 00:44:43;;;;;;;42.03;32.40;;;8.40;99.90;;;;;;5073876;28;20453;-78
2022/01/01 00:47:10;;;;;;;52.80;33.57;;;8.30;99.90;;;;;;5073550;28;20529;-81
2022/01/01 00:49:37;;;;;;;40.83;30.23;;;8.30;99.90;;;;;;5072258;28;21008;-82
2022/01/01 00:52:04;;;;;;;44.30;32.07;;;8.50;99.90;;;;;;5072611;28;20485;-82
2022/01/01 00:54:33;;;;;;;25.20;17.00;;;8.70;99.90;;;;;;5073662;28;20457;-80
2022/01/01 00:57:00;;;;;;;19.70;13.00;;;8.80;99.90;;;;;;5074069;28;20448;-81
2022/01/01 00:59:28;;;;;;;26.43;16.90;;;9.50;99.90;;;;;;5073268;28;20491;-81
2022/01/01 01:01:54;;;;;;;34.43;22.20;;;9.70;99.90;;;;;;5073637;28;20481;-80
2022/01/01 01:04:21;;;;;;;37.63;25.23;;;9.80;1.00;;;;;;5072800;28;20454;-82
2022/01/01 01:06:48;;;;;;;28.40;23.20;;;9.50;14.70;;;;;;5073656;28;20456;-82
2022/01/01 01:09:15;;;;;;;34.10;25.00;;;9.30;99.90;;;;;;5072349;28;21064;-82
2022/01/01 01:11:46;;;;;;;34.30;23.83;;;9.20;99.90;;;;;;5073086;28;21018;-81
2022/01/01 01:14:20;;;;;;;35.17;24.83;;;9.00;99.90;;;;;;5072894;28;20446;-82
2022/01/01 01:16:48;;;;;;;32.97;22.70;;;8.90;99.90;;;;;;5073452;28;20437;-81
2022/01/01 01:19:16;;;;;;;36.73;21.63;;;8.90;99.90;;;;;;5072140;28;20457;-81
2022/01/01 01:21:44;;;;;;;32.13;23.47;;;8.90;99.90;;;;;;5073343;28;20457;-81
2022/01/01 01:24:12;;;;;;;24.90;18.63;;;8.90;99.90;;;;;;5059641;28;20468;-82
2022/01/01 01:26:39;;;;;;;23.70;15.57;;;8.80;99.90;;;;;;5073053;28;20475;-82
2022/01/01 01:29:07;;;;;;;20.70;14.30;;;8.80;99.90;;;;;;5071995;28;20485;-81
2022/01/01 01:31:34;;;;;;;19.83;15.07;;;8.80;99.90;;;;;;5072866;28;20453;-82
2022/01/01 01:34:02;;;;;;;21.50;15.27;;;8.80;99.90;;;;;;5072630;28;20507;-79
2022/01/01 01:36:29;;;;;;;22.73;16.60;;;8.70;99.90;;;;;;5073024;28;20441;-82
2022/01/01 01:38:56;;;;;;;27.77;17.83;;;8.80;99.90;;;;;;5072745;28;20445;-81
2022/01/01 01:41:24;;;;;;;23.10;17.27;;;8.80;99.90;;;;;;5071435;28;20449;-81
2022/01/01 01:43:52;;;;;;;22.30;17.70;;;8.90;99.90;;;;;;5072809;28;20454;-82
2022/01/01 01:46:20;;;;;;;24.00;16.53;;;8.90;99.90;;;;;;5071957;28;20453;-81
2022/01/01 01:48:47;;;;;;;25.50;15.50;;;8.90;99.90;;;;;;5072601;28;20481;-82
2022/01/01 01:51:14;;;;;;;24.20;16.50;;;8.90;99.90;;;;;;5071147;28;20465;-81
2022/01/01 01:53:42;;;;;;;23.70;15.23;;;8.90;99.90;;;;;;5072786;28;20448;-82
2022/01/01 01:56:08;;;;;;;24.90;15.00;;;8.90;99.90;;;;;;5072222;28;20452;-81
2022/01/01 01:58:35;;;;;;;20.53;15.47;;;8.90;99.90;;;;;;5072435;28;20446;-82
2022/01/01 02:03:48;;;;;;;29.70;16.60;;;9.00;99.90;;;;;;5072242;28;20421;-82
2022/01/01 02:06:16;;;;;;;21.63;15.73;;;9.10;99.90;;;;;;5071622;28;20457;-82
2022/01/01 02:08:44;;;;;;;23.27;16.33;;;9.00;99.90;;;;;;5072272;28;20837;-78
2022/01/01 02:11:11;;;;;;;23.73;15.07;;;8.90;99.90;;;;;;5070836;28;20451;-82
2022/01/01 02:13:49;;;;;;;21.23;14.73;;;9.00;99.90;;;;;;5072239;28;20452;-82
2022/01/01 02:16:33;;;;;;;21.83;15.40;;;8.90;99.90;;;;;;5071564;28;20503;-82
2022/01/01 02:19:02;;;;;;;19.00;14.23;;;9.00;99.90;;;;;;5071837;28;20453;-72
2022/01/01 02:21:30;;;;;;;20.70;15.27;;;8.90;99.90;;;;;;5072112;28;20544;-82
2022/01/01 02:23:59;;;;;;;17.93;13.23;;;9.00;99.90;;;;;;5071843;28;20450;-82
2022/01/01 02:26:33;;;;;;;16.70;12.90;;;9.00;99.90;;;;;;5072504;28;20449;-82
2022/01/01 02:29:02;;;;;;;17.10;12.33;;;9.00;99.90;;;;;;5075294;28;20564;-82
2022/01/01 02:31:31;;;;;;;16.53;11.87;;;9.00;99.90;;;;;;5072920;28;20536;-82
2022/01/01 02:34:03;;;;;;;16.80;12.97;;;9.00;99.90;;;;;;5073954;28;21017;-81
2022/01/01 02:36:34;;;;;;;18.57;11.93;;;9.00;99.90;;;;;;5076909;28;20437;-77
2022/01/01 02:39:01;;;;;;;19.30;11.83;;;8.90;99.90;;;;;;5071245;28;20447;-73
2022/01/01 02:41:28;;;;;;;16.63;10.93;;;8.90;99.90;;;;;;5072309;28;20441;-81
2022/01/01 02:43:56;;;;;;;18.57;11.20;;;8.90;99.90;;;;;;5071874;28;20511;-82
2022/01/01 02:46:23;;;;;;;16.80;11.70;;;8.80;99.90;;;;;;5070888;28;20933;-82
2022/01/01 02:48:50;;;;;;;17.03;12.63;;;8.80;99.90;;;;;;5071249;28;20485;-82
2022/01/01 02:51:17;;;;;;;17.80;12.37;;;8.90;99.90;;;;;;5070153;28;20457;-82
2022/01/01 02:53:45;;;;;;;19.10;11.13;;;8.90;99.90;;;;;;5071599;28;20444;-80
2022/01/01 02:56:13;;;;;;;15.50;10.87;;;8.90;99.90;;;;;;5071120;28;20449;-81
2022/01/01 02:58:42;;;;;;;16.37;11.43;;;8.90;99.90;;;;;;5071208;28;20449;-82
2022/01/01 03:01:09;;;;;;;16.33;11.03;;;9.00;99.90;;;;;;5070557;28;20449;-82
2022/01/01 03:03:36;;;;;;;17.40;11.30;;;9.00;99.90;;;;;;5071580;28;20446;-82
2022/01/01 03:06:04;;;;;;;15.80;11.80;;;8.90;99.90;;;;;;5070749;28;20653;-82
2022/01/01 03:08:31;;;;;;;16.70;11.17;;;8.90;99.90;;;;;;5071110;28;20485;-77
2022/01/01 03:11:02;;;;;;;13.43;10.30;;;8.80;99.90;;;;;;5070907;28;20445;-82
2022/01/01 03:13:29;;;;;;;22.93;12.20;;;8.90;99.90;;;;;;5071085;28;20552;-82
2022/01/01 03:15:56;;;;;;;22.90;12.60;;;8.80;99.90;;;;;;5071450;28;20540;-81
2022/01/01 03:18:23;;;;;;;18.27;11.37;;;8.90;99.90;;;;;;5071103;28;20530;-82
2022/01/01 03:20:50;;;;;;;17.60;11.70;;;8.90;99.90;;;;;;5070527;28;21252;-82
2022/01/01 03:23:16;;;;;;;16.23;10.43;;;8.90;99.90;;;;;;5070794;28;20454;-82
2022/01/01 03:25:43;;;;;;;14.23;9.63;;;9.00;99.90;;;;;;5071210;28;20449;-80
2022/01/01 03:28:11;;;;;;;15.93;11.63;;;9.10;99.90;;;;;;5070544;28;20449;-83
2022/01/01 03:30:39;;;;;;;17.00;9.83;;;9.20;99.90;;;;;;5070465;28;20453;-82
2022/01/01 03:33:06;;;;;;;15.60;10.27;;;9.40;99.90;;;;;;5070765;28;20966;-81
2022/01/01 03:35:32;;;;;;;14.50;10.50;;;9.40;99.90;;;;;;5071111;28;20453;-82
2022/01/01 03:38:00;;;;;;;14.30;10.53;;;9.40;99.90;;;;;;5070840;28;20544;-82
2022/01/01 03:40:27;;;;;;;15.40;10.03;;;9.40;99.90;;;;;;5070503;28;20449;-80
2022/01/01 03:42:53;;;;;;;18.77;11.20;;;9.40;99.90;;;;;;5070699;28;20450;-82
2022/01/01 03:45:22;;;;;;;14.07;9.03;;;9.40;99.90;;;;;;5070396;28;20453;-82
2022/01/01 03:47:48;;;;;;;16.17;9.40;;;9.40;99.90;;;;;;5071364;28;20533;-82
2022/01/01 03:50:15;;;;;;;14.33;9.90;;;9.40;99.90;;;;;;5056935;28;20493;-81
2022/01/01 03:52:43;;;;;;;15.60;9.43;;;9.50;99.90;;;;;;5070336;28;20823;-81
2022/01/01 03:55:10;;;;;;;12.50;9.37;;;9.60;99.90;;;;;;5070253;28;20448;-82
2022/01/01 03:57:38;;;;;;;11.43;8.70;;;9.70;99.90;;;;;;5070922;28;20446;-82
2022/01/01 04:00:08;;;;;;;15.50;9.37;;;9.90;99.90;;;;;;5069840;28;20540;-82
2022/01/01 04:02:36;;;;;;;15.03;9.33;;;9.90;99.90;;;;;;5071015;28;20495;-82
2022/01/01 04:05:04;;;;;;;13.70;8.30;;;9.90;99.90;;;;;;5070386;28;20638;-82
2022/01/01 04:07:31;;;;;;;12.10;9.27;;;10.00;99.90;;;;;;5070575;28;20492;-77
2022/01/01 04:09:58;;;;;;;14.77;8.80;;;10.00;99.90;;;;;;5070722;28;20485;-83
2022/01/01 04:12:25;;;;;;;12.90;8.93;;;10.00;99.90;;;;;;5070085;28;20441;-82
2022/01/01 04:14:52;;;;;;;15.23;8.27;;;10.00;99.90;;;;;;5070825;28;20452;-82
2022/01/01 04:17:19;;;;;;;10.73;7.87;;;10.10;65.10;;;;;;5070197;28;20445;-82
2022/01/01 04:19:47;;;;;;;11.80;8.07;;;10.00;99.90;;;;;;5070679;28;20536;-82
2022/01/01 04:22:16;;;;;;;10.53;8.13;;;10.00;99.90;;;;;;5070293;28;20460;-82
2022/01/01 04:24:43;;;;;;;15.57;8.50;;;9.90;99.90;;;;;;5072480;28;20453;-82
2022/01/01 04:27:10;;;;;;;12.07;8.17;;;9.80;99.90;;;;;;5073875;28;20443;-82
2022/01/01 04:29:38;;;;;;;12.20;7.43;;;9.90;99.90;;;;;;5073381;28;20547;-82
2022/01/01 04:32:05;;;;;;;11.40;7.97;;;9.90;99.90;;;;;;5073318;28;20450;-82
2022/01/01 04:34:32;;;;;;;12.20;9.13;;;9.90;99.90;;;;;;5074181;28;20534;-82
2022/01/01 04:37:03;;;;;;;10.33;7.90;;;9.80;99.90;;;;;;5074219;28;20452;-82
2022/01/01 04:39:30;;;;;;;9.00;6.80;;;9.70;99.90;;;;;;5073668;28;20936;-79
2022/01/01 04:41:57;;;;;;;10.20;7.80;;;9.80;99.90;;;;;;5074196;28;20449;-82
2022/01/01 04:44:24;;;;;;;11.63;7.10;;;9.80;99.90;;;;;;5073251;28;20452;-82
2022/01/01 04:46:50;;;;;;;12.20;7.50;;;9.70;99.90;;;;;;5073812;28;20468;-81
2022/01/01 04:49:17;;;;;;;9.43;6.73;;;9.70;99.90;;;;;;5072560;28;20993;-81
2022/01/01 04:51:44;;;;;;;10.30;7.40;;;9.80;99.90;;;;;;5060129;28;20558;-81
2022/01/01 04:54:15;;;;;;;8.60;6.80;;;9.70;99.90;;;;;;5073155;28;20456;-82
2022/01/01 04:56:44;;;;;;;11.53;7.90;;;9.60;99.90;;;;;;5073946;28;20524;-82
2022/01/01 04:59:11;;;;;;;13.83;7.67;;;9.50;99.90;;;;;;5072277;28;20536;-82
2022/01/01 05:01:38;;;;;;;15.80;6.83;;;9.40;99.90;;;;;;5073739;28;20445;-82
2022/01/01 05:04:06;;;;;;;10.67;7.00;;;9.40;99.90;;;;;;5072589;28;20535;-82
2022/01/01 05:06:33;;;;;;;6.87;5.73;;;9.40;99.90;;;;;;5073615;28;20442;-81
2022/01/01 05:09:00;;;;;;;8.50;6.10;;;9.30;99.90;;;;;;5073186;28;20580;-82
2022/01/01 05:11:29;;;;;;;7.97;6.07;;;9.30;99.90;;;;;;5073313;28;20921;-82
2022/01/01 05:13:55;;;;;;;7.00;5.67;;;9.30;99.90;;;;;;5073364;28;20448;-82
2022/01/01 05:16:23;;;;;;;7.13;5.90;;;9.20;99.90;;;;;;5072829;28;20464;-83
2022/01/01 05:18:50;;;;;;;10.33;5.70;;;9.00;99.90;;;;;;5072455;28;20521;-82
2022/01/01 05:21:17;;;;;;;8.03;5.87;;;9.10;99.90;;;;;;5072317;28;20981;-82
2022/01/01 05:23:44;;;;;;;9.70;6.33;;;9.10;99.90;;;;;;5072904;28;20997;-82
2022/01/01 05:26:12;;;;;;;8.30;5.33;;;9.10;99.90;;;;;;5072641;28;20788;-82
2022/01/01 05:28:40;;;;;;;6.37;5.10;;;8.90;99.90;;;;;;5072977;28;20446;-77
2022/01/01 05:31:07;;;;;;;9.63;6.13;;;8.90;99.90;;;;;;5072163;28;20485;-83
2022/01/01 05:33:34;;;;;;;7.30;5.23;;;8.70;99.90;;;;;;5072967;28;20792;-82
2022/01/01 05:36:01;;;;;;;5.80;4.53;;;8.70;99.90;;;;;;5072332;28;20445;-75
2022/01/01 05:38:28;;;;;;;7.67;5.87;;;8.60;99.90;;;;;;5073058;28;20438;-82
2022/01/01 05:40:55;;;;;;;8.47;5.73;;;8.60;99.90;;;;;;5072831;28;20459;-82
2022/01/01 05:43:22;;;;;;;7.70;5.80;;;8.60;99.90;;;;;;5072070;28;20438;-82
2022/01/01 05:45:51;;;;;;;10.83;6.17;;;8.60;99.90;;;;;;5072405;28;20441;-82
2022/01/01 05:48:18;;;;;;;7.10;5.03;;;8.70;99.90;;;;;;5072394;28;20442;-82
2022/01/01 05:50:45;;;;;;;7.93;5.13;;;8.70;99.90;;;;;;5072175;28;20498;-82
2022/01/01 05:53:11;;;;;;;6.47;4.53;;;8.60;99.90;;;;;;5072091;28;20460;-82
2022/01/01 05:55:38;;;;;;;7.30;5.07;;;8.50;99.90;;;;;;5072350;28;20439;-82
2022/01/01 05:58:06;;;;;;;7.80;5.27;;;8.40;99.90;;;;;;5071945;28;20438;-81
2022/01/01 06:00:33;;;;;;;9.27;5.37;;;8.30;99.90;;;;;;5071845;28;20449;-82
2022/01/01 06:03:02;;;;;;;10.80;5.13;;;8.20;99.90;;;;;;5072479;28;20433;-72
2022/01/01 06:05:29;;;;;;;7.37;4.70;;;8.20;99.90;;;;;;5072229;28;20442;-82
2022/01/01 06:07:57;;;;;;;6.13;4.43;;;8.30;99.90;;;;;;5072807;28;20441;-82
2022/01/01 06:10:25;;;;;;;8.73;4.90;;;8.50;99.90;;;;;;5071039;28;20477;-81
2022/01/01 06:12:52;;;;;;;8.73;4.40;;;8.70;99.90;;;;;;5072346;28;20445;-82
2022/01/01 06:15:20;;;;;;;6.03;4.50;;;8.60;99.90;;;;;;5071410;28;20437;-81
2022/01/01 06:17:46;;;;;;;6.10;4.00;;;8.60;99.90;;;;;;5072419;28;20536;-82
2022/01/01 06:20:15;;;;;;;7.80;4.67;;;8.70;99.90;;;;;;5071272;28;20452;-78
2022/01/01 06:22:42;;;;;;;8.13;4.67;;;8.70;99.90;;;;;;5072305;28;20536;-83
2022/01/01 06:25:10;;;;;;;5.40;4.33;;;8.80;85.60;;;;;;5071539;28;20457;-82
2022/01/01 06:27:37;;;;;;;6.07;3.97;;;8.90;74.90;;;;;;5071863;28;20495;-83
2022/01/01 06:30:04;;;;;;;5.20;3.63;;;8.80;14.50;;;;;;5070854;28;20591;-81
2022/01/01 06:32:32;;;;;;;7.20;4.17;;;8.90;1.00;;;;;;5072167;28;20799;-82
2022/01/01 06:35:00;;;;;;;4.73;3.40;;;8.90;1.00;;;;;;5071645;28;20437;-83
2022/01/01 06:37:28;;;;;;;5.63;4.33;;;9.00;1.00;;;;;;5072075;28;20491;-82
2022/01/01 06:39:55;;;;;;;6.67;4.07;;;9.00;1.00;;;;;;5071856;28;20549;-82
2022/01/01 06:42:22;;;;;;;6.47;4.00;;;8.90;1.00;;;;;;5071393;28;20438;-82
2022/01/01 06:44:48;;;;;;;8.90;4.90;;;8.90;1.00;;;;;;5071368;28;20441;-83
2022/01/01 06:47:15;;;;;;;7.40;4.50;;;9.10;1.00;;;;;;5070359;28;20445;-82
2022/01/01 06:49:42;;;;;;;4.90;4.40;;;9.00;1.00;;;;;;5071102;28;21000;-82
2022/01/01 06:52:09;;;;;;;5.83;4.23;;;9.00;1.00;;;;;;5070413;28;20479;-82
2022/01/01 06:54:37;;;;;;;8.00;4.73;;;9.00;1.00;;;;;;5071580;28;20442;-82
2022/01/01 06:57:05;;;;;;;5.23;4.67;;;9.00;1.00;;;;;;5071164;28;20849;-82
2022/01/01 06:59:31;;;;;;;6.17;3.93;;;9.00;1.00;;;;;;5070661;28;20524;-81
2022/01/01 07:01:59;;;;;;;7.73;4.83;;;9.20;1.00;;;;;;5071816;28;20788;-81
2022/01/01 07:04:25;;;;;;;4.80;3.77;;;9.20;1.00;;;;;;5071664;28;20468;-82
2022/01/01 07:06:52;;;;;;;7.37;4.10;;;9.10;1.00;;;;;;5071246;28;20447;-82
2022/01/01 07:09:19;;;;;;;6.37;4.30;;;9.10;1.00;;;;;;5070535;28;20447;-82
2022/01/01 07:11:47;;;;;;;8.23;4.63;;;9.20;1.00;;;;;;5071814;28;20520;-82
2022/01/01 07:14:14;;;;;;;5.57;4.27;;;9.10;1.00;;;;;;5070648;28;20464;-82
2022/01/01 07:16:41;;;;;;;5.50;3.30;;;9.10;1.00;;;;;;5071206;28;20443;-83
2022/01/01 07:19:08;;;;;;;4.90;3.60;;;9.00;1.00;;;;;;5070674;28;20445;-82
2022/01/01 07:21:35;;;;;;;7.70;4.30;;;9.00;1.00;;;;;;5071388;28;20445;-82
2022/01/01 07:24:02;;;;;;;5.27;4.20;;;9.10;1.00;;;;;;5071151;28;20537;-82
2022/01/01 07:26:28;;;;;;;5.53;3.70;;;9.00;1.00;;;;;;5071652;28;20444;-82
2022/01/01 07:28:57;;;;;;;6.40;4.60;;;9.00;1.00;;;;;;5071046;28;20917;-83
2022/01/01 07:31:23;;;;;;;7.50;4.73;;;9.00;1.00;;;;;;5070650;28;20512;-82
2022/01/01 07:33:50;;;;;;;6.00;3.80;;;9.00;1.00;;;;;;5071260;28;20445;-82
2022/01/01 07:36:17;;;;;;;5.20;3.90;;;9.00;1.00;;;;;;5070993;28;20441;-82
2022/01/01 07:38:44;;;;;;;5.13;4.40;;;9.10;1.00;;;;;;5070635;28;20453;-81
2022/01/01 07:41:11;;;;;;;6.10;3.87;;;9.10;1.00;;;;;;5070923;28;20523;-82
2022/01/01 07:43:38;;;;;;;5.60;3.80;;;9.10;1.00;;;;;;5071508;28;20437;-82
2022/01/01 07:46:06;;;;;;;6.57;4.30;;;9.10;1.00;;;;;;5070414;28;20447;-81
2022/01/01 07:48:33;;;;;;;7.00;3.90;;;9.10;1.00;;;;;;5070334;28;20446;-82
2022/01/01 07:51:00;;;;;;;5.67;3.57;;;9.10;1.00;;;;;;5070785;28;20509;-71
2022/01/01 07:53:27;;;;;;;6.27;4.10;;;9.00;1.00;;;;;;5031255;28;20497;-82
2022/01/01 07:55:54;;;;;;;6.40;3.93;;;9.10;1.00;;;;;;5030831;28;20435;-83
2022/01/01 07:58:21;;;;;;;6.43;4.03;;;9.10;1.00;;;;;;5032246;28;20535;-83
2022/01/01 08:00:48;;;;;;;6.37;3.90;;;9.10;1.00;;;;;;5034858;28;20489;-82
2022/01/01 08:03:16;;;;;;;8.07;4.40;;;9.10;1.00;;;;;;5034621;28;20530;-82
2022/01/01 08:05:43;;;;;;;4.60;3.37;;;9.10;1.00;;;;;;5035525;28;20941;-82
2022/01/01 08:08:10;;;;;;;3.83;3.07;;;9.10;1.00;;;;;;5039281;28;20924;-83
2022/01/01 08:10:37;;;;;;;5.33;3.60;;;9.00;1.00;;;;;;5036219;28;20570;-82
2022/01/01 08:13:06;;;;;;;6.00;3.67;;;9.00;14.40;;;;;;5039979;28;20447;-81
2022/01/01 08:15:33;;;;;;;6.63;4.23;;;8.90;47.30;;;;;;5037578;28;20447;-83
2022/01/01 08:18:00;;;;;;;7.10;4.20;;;8.90;80.50;;;;;;5034922;28;20470;-82
2022/01/01 08:20:28;;;;;;;4.13;3.43;;;9.00;19.50;;;;;;5034619;28;20518;-82
2022/01/01 08:22:55;;;;;;;6.87;4.00;;;9.10;1.00;;;;;;5034926;28;20447;-81
2022/01/01 08:25:24;;;;;;;4.57;3.40;;;9.10;1.00;;;;;;5033922;28;20443;-82
2022/01/01 08:27:51;;;;;;;5.77;4.60;;;9.20;1.00;;;;;;5034051;28;20951;-82
2022/01/01 08:30:18;;;;;;;4.50;3.80;;;9.30;1.00;;;;;;5033150;28;20564;-82
2022/01/01 08:32:45;;;;;;;4.77;3.50;;;9.30;99.90;;;;;;5034482;28;20443;-82
2022/01/01 08:35:13;;;;;;;5.80;3.57;;;9.40;99.90;;;;;;5033686;28;20465;-83
2022/01/01 08:37:41;;;;;;;6.00;4.70;;;9.50;99.90;;;;;;5034024;28;20791;-82
2022/01/01 08:40:09;;;;;;;3.23;2.73;;;9.40;99.90;;;;;;5033577;28;20469;-82
2022/01/01 08:42:35;;;;;;;4.97;3.23;;;9.50;99.30;;;;;;5034024;28;20436;-82
2022/01/01 08:45:03;;;;;;;4.73;2.90;;;9.50;1.00;;;;;;5033563;28;20467;-82
2022/01/01 08:47:30;;;;;;;6.70;3.57;;;9.50;1.00;;;;;;5034417;28;20443;-82
2022/01/01 08:49:57;;;;;;;4.37;3.33;;;9.60;1.00;;;;;;5033879;28;20449;-82
2022/01/01 08:52:24;;;;;;;4.93;3.30;;;9.60;1.00;;;;;;5056286;28;20571;-82
2022/01/01 08:54:56;;;;;;;4.90;3.57;;;9.50;64.50;;;;;;5073817;28;20867;-82
2022/01/01 08:57:22;;;;;;;5.37;3.53;;;9.40;99.90;;;;;;5073089;28;20516;-83
2022/01/01 08:59:49;;;;;;;5.00;3.20;;;9.40;98.20;;;;;;5072910;28;20529;-82
2022/01/01 09:02:16;;;;;;;3.70;2.70;;;9.50;1.00;;;;;;5073217;28;20437;-82
2022/01/01 09:04:43;;;;;;;6.83;3.77;;;9.50;1.00;;;;;;5060070;28;20528;-78
2022/01/01 09:07:12;;;;;;;4.33;3.70;;;9.50;99.90;;;;;;5073048;28;20437;-82
2022/01/01 09:09:39;;;;;;;4.20;3.40;;;9.40;99.90;;;;;;5059717;28;20488;-82
2022/01/01 09:12:09;;;;;;;4.67;3.10;;;9.50;99.90;;;;;;5072919;28;20477;-82
2022/01/01 09:14:35;;;;;;;6.80;3.40;;;9.40;99.90;;;;;;5073802;28;20540;-82
2022/01/01 09:17:03;;;;;;;5.00;3.43;;;9.50;65.60;;;;;;5072579;28;20473;-82
2022/01/01 09:19:30;;;;;;;4.37;3.27;;;9.60;1.00;;;;;;5073223;28;20524;-82
2022/01/01 09:21:57;;;;;;;3.83;3.00;;;9.80;1.00;;;;;;5073405;28;20532;-82
2022/01/01 09:24:24;;;;;;;4.83;3.87;;;9.90;99.90;;;;;;5072581;28;20446;-83
2022/01/01 09:26:51;;;;;;;4.93;2.67;;;10.00;68.80;;;;;;5073414;28;20449;-82
2022/01/01 09:29:19;;;;;;;4.90;2.83;;;10.10;1.00;;;;;;5072081;28;20935;-82
2022/01/01 09:31:46;;;;;;;4.50;3.17;;;10.20;1.00;;;;;;5072950;28;20561;-82
2022/01/01 09:34:13;;;;;;;7.93;3.40;;;10.10;99.90;;;;;;5072822;28;20433;-83
2022/01/01 09:36:40;;;;;;;5.83;3.30;;;10.20;99.90;;;;;;5073191;28;20446;-82
2022/01/01 09:39:07;;;;;;;5.00;3.47;;;10.30;99.90;;;;;;5071814;28;20944;-82
2022/01/01 09:41:34;;;;;;;6.30;3.60;;;10.60;86.90;;;;;;5073090;28;20447;-81
2022/01/01 09:44:02;;;;;;;6.10;3.80;;;10.80;99.90;;;;;;5071955;28;20469;-81
2022/01/01 09:46:30;;;;;;;4.70;3.73;;;10.70;99.90;;;;;;5072542;28;20937;-83
2022/01/01 09:48:57;;;;;;;6.00;3.43;;;10.70;99.90;;;;;;5072393;28;20445;-82
2022/01/01 09:51:25;;;;;;;5.50;3.27;;;10.60;99.90;;;;;;5071982;28;20636;-82
2022/01/01 09:53:51;;;;;;;5.40;2.93;;;10.60;99.90;;;;;;5072174;28;20438;-80
2022/01/01 09:56:18;;;;;;;4.50;3.50;;;10.90;99.90;;;;;;5072190;28;20437;-82
2022/01/01 09:58:45;;;;;;;5.10;3.47;;;10.90;1.00;;;;;;5072181;28;20765;-82
2022/01/01 10:01:12;;;;;;;3.03;2.63;;;11.50;1.00;;;;;;5071795;28;20489;-82
2022/01/01 10:03:42;;;;;;;3.87;2.70;;;11.40;1.00;;;;;;5072644;28;20467;-82
2022/01/01 10:06:12;;;;;;;3.10;2.30;;;11.40;1.00;;;;;;5071764;28;20467;-82
2022/01/01 10:08:41;;;;;;;3.10;2.50;;;11.20;99.90;;;;;;5072089;28;20524;-82
2022/01/01 10:11:08;;;;;;;5.13;2.50;;;11.20;1.00;;;;;;5071528;28;20499;-82
2022/01/01 10:13:37;;;;;;;3.97;2.80;;;11.20;99.90;;;;;;5072409;28;20860;-82
2022/01/01 10:16:07;;;;;;;3.03;2.23;;;11.30;99.90;;;;;;5071360;28;20445;-82
2022/01/01 10:18:36;;;;;;;4.47;3.10;;;11.20;1.00;;;;;;5071772;28;20451;-82
2022/01/01 10:21:05;;;;;;;3.63;2.60;;;11.20;1.00;;;;;;5071157;28;20914;-82
2022/01/01 10:23:34;;;;;;;4.27;2.70;;;11.30;1.00;;;;;;5071693;28;20457;-82
2022/01/01 10:29:12;;;;;;;2.73;1.93;;;11.40;74.20;;;;;;5071638;28;20420;-82
2022/01/01 10:31:41;;;;;;;3.30;2.30;;;11.40;99.90;;;;;;5071570;28;20559;-82
2022/01/01 10:34:13;;;;;;;2.90;2.47;;;11.50;99.90;;;;;;5071043;28;20535;-83
2022/01/01 10:36:44;;;;;;;6.37;2.37;;;11.60;99.90;;;;;;5071736;28;20532;-82
2022/01/01 10:39:13;;;;;;;2.90;2.20;;;11.60;1.00;;;;;;5071103;28;20461;-82
2022/01/01 10:41:47;;;;;;;2.47;2.20;;;11.50;1.00;;;;;;5071700;28;20879;-82
2022/01/01 10:44:15;;;;;;;3.63;2.33;;;11.70;1.00;;;;;;5071728;28;20437;-81
2022/01/01 10:46:42;;;;;;;3.00;2.17;;;11.70;1.00;;;;;;5071843;28;20438;-82
2022/01/01 10:52:19;;;;;;;4.13;2.17;;;12.10;99.90;;;;;;5071469;28;20545;-81
2022/01/01 10:54:51;;;;;;;4.60;1.73;;;12.20;99.90;;;;;;5072058;28;20440;-81
2022/01/01 10:57:29;;;;;;;4.30;1.87;;;12.30;1.00;;;;;;5071010;28;21001;-82
2022/01/01 11:00:17;;;;;;;3.23;2.00;;;12.40;99.90;;;;;;5058176;28;20949;-82
2022/01/01 11:02:48;;;;;;;2.97;1.90;;;12.60;99.90;;;;;;5071454;28;20445;-81
2022/01/01 11:05:16;;;;;;;2.80;2.20;;;12.60;1.00;;;;;;5071011;28;20465;-82
2022/01/01 11:07:52;;;;;;;2.80;2.50;;;12.70;22.20;;;;;;5071623;28;20451;-82
2022/01/01 11:10:21;;;;;;;3.57;2.20;;;12.80;1.00;;;;;;5070693;28;20445;-82
2022/01/01 11:12:48;;;;;;;5.10;3.50;;;12.80;1.00;;;;;;5070969;28;20485;-82
2022/01/01 11:15:15;;;;;;;5.50;3.93;;;12.80;99.90;;;;;;5070701;28;20446;-81
2022/01/01 11:17:44;;;;;;;4.50;3.83;;;12.80;1.00;;;;;;5057700;28;20453;-83
2022/01/01 11:20:11;;;;;;;6.30;5.10;;;12.80;1.00;;;;;;5070377;28;20810;-81
2022/01/01 11:22:38;;;;;;;6.43;4.73;;;12.90;1.00;;;;;;5071623;28;20785;-82
2022/01/01 11:25:07;;;;;;;7.30;4.77;;;12.90;1.00;;;;;;5070840;28;20532;-82
2022/01/01 11:27:34;;;;;;;6.10;4.20;;;12.90;1.00;;;;;;5071443;28;20455;-81
2022/01/01 11:30:05;;;;;;;7.30;4.77;;;13.00;99.90;;;;;;5069862;28;20473;-77
2022/01/01 11:32:41;;;;;;;6.70;4.60;;;13.00;99.90;;;;;;5071552;28;20552;-81
2022/01/01 11:35:12;;;;;;;7.00;5.30;;;13.00;99.90;;;;;;5075032;28;20535;-82
2022/01/01 11:37:47;;;;;;;7.40;4.90;;;13.00;99.90;;;;;;5075628;28;20445;-82
2022/01/01 11:40:18;;;;;;;7.63;4.47;;;13.10;99.90;;;;;;5073971;28;20536;-80
2022/01/01 11:42:46;;;;;;;4.83;3.90;;;13.10;99.90;;;;;;5075531;28;20445;-81
2022/01/01 11:45:14;;;;;;;5.73;4.10;;;13.20;99.90;;;;;;5074567;28;20453;-82
2022/01/01 11:47:41;;;;;;;6.53;4.40;;;13.30;99.90;;;;;;5074906;28;20456;-82
2022/01/01 11:50:08;;;;;;;5.23;4.40;;;13.40;99.90;;;;;;5074309;28;20549;-82
2022/01/01 11:52:37;;;;;;;5.50;3.80;;;13.50;99.90;;;;;;5074748;28;20500;-81
2022/01/01 11:55:10;;;;;;;6.43;3.90;;;13.50;99.90;;;;;;5074529;28;20536;-82
2022/01/01 11:57:38;;;;;;;7.80;4.33;;;13.50;99.90;;;;;;5074824;28;20771;-83
2022/01/01 12:00:13;;;;;;;5.23;3.80;;;13.60;99.90;;;;;;5073222;28;20935;-80
2022/01/01 12:02:44;;;;;;;6.07;4.40;;;13.60;99.90;;;;;;5074563;28;20527;-80
2022/01/01 12:05:17;;;;;;;6.50;4.60;;;13.60;99.90;;;;;;5074144;28;20449;-83
2022/01/01 12:07:47;;;;;;;6.00;4.20;;;13.60;1.00;;;;;;5074605;28;20445;-82
2022/01/01 12:10:20;;;;;;;5.80;4.23;;;13.50;99.90;;;;;;5073510;28;20449;-78
2022/01/01 12:12:50;;;;;;;6.20;4.40;;;13.60;99.90;;;;;;5074132;28;20479;-83
2022/01/01 12:15:29;;;;;;;5.83;4.30;;;13.60;1.00;;;;;;5073804;28;20449;-83
2022/01/01 12:17:58;;;;;;;5.40;3.70;;;13.60;1.00;;;;;;5074414;28;20440;-81
2022/01/01 12:20:27;;;;;;;5.60;4.50;;;13.80;99.90;;;;;;5074188;28;20796;-81
2022/01/01 12:22:54;;;;;;;5.93;4.00;;;13.80;99.90;;;;;;5074438;28;20457;-81
2022/01/01 12:25:24;;;;;;;6.33;3.83;;;13.80;99.90;;;;;;5073343;28;20544;-80
2022/01/01 12:27:55;;;;;;;5.30;4.10;;;13.90;1.00;;;;;;5073930;28;20450;-80
2022/01/01 12:30:36;;;;;;;5.17;4.20;;;14.20;99.90;;;;;;5073265;28;20445;-81
2022/01/01 12:33:03;;;;;;;6.03;3.87;;;14.10;26.70;;;;;;5073598;28;20824;-82
2022/01/01 12:35:42;;;;;;;5.87;3.63;;;14.00;1.00;;;;;;5073786;28;20452;-80
2022/01/01 12:38:10;;;;;;;7.80;4.90;;;14.20;99.90;;;;;;5072962;28;20456;-83
2022/01/01 12:40:40;;;;;;;9.27;5.40;;;14.10;99.90;;;;;;5073879;28;20460;-83
2022/01/01 12:43:12;;;;;;;6.93;4.77;;;13.90;99.90;;;;;;5073227;28;20502;-82
2022/01/01 12:45:41;;;;;;;5.97;3.80;;;13.90;1.00;;;;;;5072549;28;20449;-83
2022/01/01 12:48:09;;;;;;;7.60;4.93;;;13.80;1.00;;;;;;5072459;28;20449;-83
2022/01/01 12:50:36;;;;;;;7.47;5.30;;;13.70;1.00;;;;;;5073670;28;20468;-83
2022/01/01 12:53:03;;;;;;;8.90;6.80;;;13.70;99.90;;;;;;5072845;28;20838;-82
2022/01/01 12:55:30;;;;;;;11.33;6.50;;;13.60;99.90;;;;;;5073553;28;20457;-78
2022/01/01 12:58:21;;;;;;;8.60;6.40;;;13.60;99.90;;;;;;5073232;28;20445;-82
2022/01/01 13:00:48;;;;;;;8.23;6.43;;;13.70;18.20;;;;;;5073175;28;20524;-82
2022/01/01 13:03:15;;;;;;;11.00;5.77;;;13.60;66.80;;;;;;5072682;28;20544;-82